weather June 19, 2001

@

2001/06/19 06:00 UTC

LFMN 190600Z 33012KT 9999 FEW060 20/08 Q1016 NOSIG

2001/06/19 14:50 UTC

LIEO 191450Z 12009KT 9999 FEW020 SCT025 27/11 Q1014

2001/06/19 15:20 UTC

LGIR 191520Z 08004KT CAVOK 25/16 Q1009 NOSIG

2001/06/19 14:00 UTC

HELX 27006KT CAVOK 39/15 Q1006 NOSIG


Ads by TOK2